sensor_id;sensor_type;location;lat;lon;timestamp;P1;durP1;ratioP1;P2;durP2;ratioP2
13415;SDS011;6779;50.150;8.680;2022-10-16T00:01:22;2.73;;;2.50;;
13415;SDS011;6779;50.150;8.680;2022-10-16T00:03:52;4.17;;;3.30;;
13415;SDS011;6779;50.150;8.680;2022-10-16T00:06:19;3.40;;;3.00;;
13415;SDS011;6779;50.150;8.680;2022-10-16T00:08:47;3.37;;;2.93;;
13415;SDS011;6779;50.150;8.680;2022-10-16T00:11:17;3.60;;;3.30;;
13415;SDS011;6779;50.150;8.680;2022-10-16T00:13:47;3.57;;;3.00;;
13415;SDS011;6779;50.150;8.680;2022-10-16T00:16:16;3.97;;;3.17;;
13415;SDS011;6779;50.150;8.680;2022-10-16T00:18:42;5.93;;;3.40;;
13415;SDS011;6779;50.150;8.680;2022-10-16T00:21:09;3.60;;;3.30;;
13415;SDS011;6779;50.150;8.680;2022-10-16T00:23:37;4.57;;;4.17;;
13415;SDS011;6779;50.150;8.680;2022-10-16T00:26:04;4.60;;;3.87;;
13415;SDS011;6779;50.150;8.680;2022-10-16T00:28:32;6.23;;;4.67;;
13415;SDS011;6779;50.150;8.680;2022-10-16T00:30:58;4.90;;;4.30;;
13415;SDS011;6779;50.150;8.680;2022-10-16T00:33:24;5.13;;;4.23;;
13415;SDS011;6779;50.150;8.680;2022-10-16T00:35:49;5.20;;;4.70;;
13415;SDS011;6779;50.150;8.680;2022-10-16T00:38:15;6.93;;;5.50;;
13415;SDS011;6779;50.150;8.680;2022-10-16T00:40:41;5.93;;;4.93;;
13415;SDS011;6779;50.150;8.680;2022-10-16T00:43:31;6.57;;;5.83;;
13415;SDS011;6779;50.150;8.680;2022-10-16T00:46:00;6.83;;;6.03;;
13415;SDS011;6779;50.150;8.680;2022-10-16T00:48:27;6.50;;;5.73;;
13415;SDS011;6779;50.150;8.680;2022-10-16T00:50:52;6.07;;;5.50;;
13415;SDS011;6779;50.150;8.680;2022-10-16T00:53:18;7.47;;;5.50;;
13415;SDS011;6779;50.150;8.680;2022-10-16T00:55:44;7.40;;;5.30;;
13415;SDS011;6779;50.150;8.680;2022-10-16T00:58:11;7.90;;;5.63;;
13415;SDS011;6779;50.150;8.680;2022-10-16T01:00:37;6.30;;;5.57;;
13415;SDS011;6779;50.150;8.680;2022-10-16T01:03:03;7.03;;;5.10;;
13415;SDS011;6779;50.150;8.680;2022-10-16T01:05:49;6.13;;;5.20;;
13415;SDS011;6779;50.150;8.680;2022-10-16T01:08:26;6.07;;;5.47;;
13415;SDS011;6779;50.150;8.680;2022-10-16T01:11:22;5.73;;;4.97;;
13415;SDS011;6779;50.150;8.680;2022-10-16T01:14:11;5.70;;;4.80;;
13415;SDS011;6779;50.150;8.680;2022-10-16T01:16:46;5.80;;;4.87;;
13415;SDS011;6779;50.150;8.680;2022-10-16T01:22:14;5.83;;;5.07;;
13415;SDS011;6779;50.150;8.680;2022-10-16T01:24:43;5.33;;;4.80;;
13415;SDS011;6779;50.150;8.680;2022-10-16T01:27:21;4.97;;;4.47;;
13415;SDS011;6779;50.150;8.680;2022-10-16T01:29:50;7.27;;;4.53;;
13415;SDS011;6779;50.150;8.680;2022-10-16T01:32:39;4.60;;;4.20;;
13415;SDS011;6779;50.150;8.680;2022-10-16T01:35:18;4.60;;;4.03;;
13415;SDS011;6779;50.150;8.680;2022-10-16T01:37:50;5.77;;;4.43;;
13415;SDS011;6779;50.150;8.680;2022-10-16T01:40:32;4.07;;;3.57;;
13415;SDS011;6779;50.150;8.680;2022-10-16T01:43:03;5.47;;;4.00;;
13415;SDS011;6779;50.150;8.680;2022-10-16T01:45:31;4.27;;;3.80;;
13415;SDS011;6779;50.150;8.680;2022-10-16T01:48:00;4.60;;;3.80;;
13415;SDS011;6779;50.150;8.680;2022-10-16T01:50:29;4.57;;;3.93;;
13415;SDS011;6779;50.150;8.680;2022-10-16T01:52:58;4.47;;;3.93;;
13415;SDS011;6779;50.150;8.680;2022-10-16T01:55:29;4.63;;;4.10;;
13415;SDS011;6779;50.150;8.680;2022-10-16T01:57:58;4.87;;;4.30;;
13415;SDS011;6779;50.150;8.680;2022-10-16T02:00:26;3.53;;;3.23;;
13415;SDS011;6779;50.150;8.680;2022-10-16T02:02:52;4.30;;;3.23;;
13415;SDS011;6779;50.150;8.680;2022-10-16T02:05:31;4.43;;;3.40;;
13415;SDS011;6779;50.150;8.680;2022-10-16T02:08:17;3.93;;;3.30;;
13415;SDS011;6779;50.150;8.680;2022-10-16T02:10:44;3.30;;;3.00;;
13415;SDS011;6779;50.150;8.680;2022-10-16T02:13:11;6.77;;;3.63;;
13415;SDS011;6779;50.150;8.680;2022-10-16T02:15:41;4.43;;;4.03;;
13415;SDS011;6779;50.150;8.680;2022-10-16T02:18:07;3.30;;;3.00;;
13415;SDS011;6779;50.150;8.680;2022-10-16T02:20:43;3.13;;;2.83;;
13415;SDS011;6779;50.150;8.680;2022-10-16T02:23:23;3.47;;;2.87;;
13415;SDS011;6779;50.150;8.680;2022-10-16T02:25:54;3.97;;;2.83;;
13415;SDS011;6779;50.150;8.680;2022-10-16T02:28:27;2.97;;;2.60;;
13415;SDS011;6779;50.150;8.680;2022-10-16T02:31:03;2.23;;;2.03;;
13415;SDS011;6779;50.150;8.680;2022-10-16T02:33:31;2.77;;;2.20;;
13415;SDS011;6779;50.150;8.680;2022-10-16T02:35:58;2.10;;;2.00;;
13415;SDS011;6779;50.150;8.680;2022-10-16T02:38:24;2.13;;;1.90;;
13415;SDS011;6779;50.150;8.680;2022-10-16T02:40:51;2.27;;;2.07;;
13415;SDS011;6779;50.150;8.680;2022-10-16T02:43:17;2.17;;;1.97;;
13415;SDS011;6779;50.150;8.680;2022-10-16T02:45:43;4.20;;;1.87;;
13415;SDS011;6779;50.150;8.680;2022-10-16T02:48:09;2.00;;;1.60;;
13415;SDS011;6779;50.150;8.680;2022-10-16T02:50:34;3.20;;;1.70;;
13415;SDS011;6779;50.150;8.680;2022-10-16T02:53:00;2.53;;;1.57;;
13415;SDS011;6779;50.150;8.680;2022-10-16T02:55:26;1.70;;;1.60;;
13415;SDS011;6779;50.150;8.680;2022-10-16T02:57:52;1.77;;;1.60;;
13415;SDS011;6779;50.150;8.680;2022-10-16T03:00:18;1.73;;;1.23;;
13415;SDS011;6779;50.150;8.680;2022-10-16T03:02:45;3.87;;;1.83;;
13415;SDS011;6779;50.150;8.680;2022-10-16T03:05:11;1.50;;;1.40;;
13415;SDS011;6779;50.150;8.680;2022-10-16T03:07:37;1.90;;;1.70;;
13415;SDS011;6779;50.150;8.680;2022-10-16T03:10:02;2.20;;;1.40;;
13415;SDS011;6779;50.150;8.680;2022-10-16T03:12:28;2.40;;;1.50;;
13415;SDS011;6779;50.150;8.680;2022-10-16T03:14:55;1.60;;;1.50;;
13415;SDS011;6779;50.150;8.680;2022-10-16T03:17:21;1.97;;;1.57;;
13415;SDS011;6779;50.150;8.680;2022-10-16T03:19:47;1.43;;;1.33;;
13415;SDS011;6779;50.150;8.680;2022-10-16T03:22:13;2.77;;;1.47;;
13415;SDS011;6779;50.150;8.680;2022-10-16T03:24:38;2.17;;;1.67;;
13415;SDS011;6779;50.150;8.680;2022-10-16T03:27:04;1.37;;;1.00;;
13415;SDS011;6779;50.150;8.680;2022-10-16T03:29:30;3.73;;;1.30;;
13415;SDS011;6779;50.150;8.680;2022-10-16T03:31:57;1.47;;;1.37;;
13415;SDS011;6779;50.150;8.680;2022-10-16T03:34:22;2.30;;;1.37;;
13415;SDS011;6779;50.150;8.680;2022-10-16T03:36:48;2.90;;;1.33;;
13415;SDS011;6779;50.150;8.680;2022-10-16T03:39:13;1.10;;;1.10;;
13415;SDS011;6779;50.150;8.680;2022-10-16T03:41:39;1.03;;;1.00;;
13415;SDS011;6779;50.150;8.680;2022-10-16T03:44:04;2.50;;;1.40;;
13415;SDS011;6779;50.150;8.680;2022-10-16T03:46:30;1.50;;;1.10;;
13415;SDS011;6779;50.150;8.680;2022-10-16T03:48:56;1.97;;;1.20;;
13415;SDS011;6779;50.150;8.680;2022-10-16T03:51:21;1.27;;;1.00;;
13415;SDS011;6779;50.150;8.680;2022-10-16T03:53:47;1.70;;;1.23;;
13415;SDS011;6779;50.150;8.680;2022-10-16T03:56:12;2.40;;;1.00;;
13415;SDS011;6779;50.150;8.680;2022-10-16T03:58:38;1.73;;;1.20;;
13415;SDS011;6779;50.150;8.680;2022-10-16T04:01:03;1.40;;;1.30;;
13415;SDS011;6779;50.150;8.680;2022-10-16T04:03:29;4.47;;;1.30;;
13415;SDS011;6779;50.150;8.680;2022-10-16T04:05:54;2.60;;;1.30;;
13415;SDS011;6779;50.150;8.680;2022-10-16T04:08:20;0.90;;;0.90;;
13415;SDS011;6779;50.150;8.680;2022-10-16T04:10:46;1.33;;;1.23;;
13415;SDS011;6779;50.150;8.680;2022-10-16T04:13:11;3.37;;;1.00;;
13415;SDS011;6779;50.150;8.680;2022-10-16T04:15:38;1.30;;;1.20;;
13415;SDS011;6779;50.150;8.680;2022-10-16T04:18:03;1.77;;;1.27;;
13415;SDS011;6779;50.150;8.680;2022-10-16T04:20:29;1.83;;;1.30;;
13415;SDS011;6779;50.150;8.680;2022-10-16T04:22:55;1.20;;;1.10;;
13415;SDS011;6779;50.150;8.680;2022-10-16T04:25:20;1.20;;;1.10;;
13415;SDS011;6779;50.150;8.680;2022-10-16T04:27:46;2.03;;;1.30;;
13415;SDS011;6779;50.150;8.680;2022-10-16T04:30:12;1.53;;;1.43;;
13415;SDS011;6779;50.150;8.680;2022-10-16T04:32:38;1.47;;;1.37;;
13415;SDS011;6779;50.150;8.680;2022-10-16T04:35:04;1.37;;;1.27;;
13415;SDS011;6779;50.150;8.680;2022-10-16T04:37:30;1.80;;;1.40;;
13415;SDS011;6779;50.150;8.680;2022-10-16T04:39:55;1.57;;;1.23;;
13415;SDS011;6779;50.150;8.680;2022-10-16T04:42:21;1.00;;;1.00;;
13415;SDS011;6779;50.150;8.680;2022-10-16T04:44:46;1.10;;;1.00;;
13415;SDS011;6779;50.150;8.680;2022-10-16T04:47:12;1.83;;;1.27;;
13415;SDS011;6779;50.150;8.680;2022-10-16T04:49:38;1.30;;;1.20;;
13415;SDS011;6779;50.150;8.680;2022-10-16T04:52:04;1.43;;;1.30;;
13415;SDS011;6779;50.150;8.680;2022-10-16T04:54:29;1.47;;;1.30;;
13415;SDS011;6779;50.150;8.680;2022-10-16T04:56:55;2.73;;;1.20;;
13415;SDS011;6779;50.150;8.680;2022-10-16T04:59:21;3.07;;;1.47;;
13415;SDS011;6779;50.150;8.680;2022-10-16T05:01:47;2.07;;;1.30;;
13415;SDS011;6779;50.150;8.680;2022-10-16T05:04:13;1.50;;;1.27;;
13415;SDS011;6779;50.150;8.680;2022-10-16T05:06:40;1.80;;;1.40;;
13415;SDS011;6779;50.150;8.680;2022-10-16T05:09:05;2.30;;;1.37;;
13415;SDS011;6779;50.150;8.680;2022-10-16T05:11:31;3.07;;;1.30;;
13415;SDS011;6779;50.150;8.680;2022-10-16T05:13:57;2.37;;;1.40;;
13415;SDS011;6779;50.150;8.680;2022-10-16T05:16:22;4.63;;;1.47;;
13415;SDS011;6779;50.150;8.680;2022-10-16T05:18:48;1.90;;;1.33;;
13415;SDS011;6779;50.150;8.680;2022-10-16T05:21:13;1.50;;;1.40;;
13415;SDS011;6779;50.150;8.680;2022-10-16T05:23:39;1.87;;;1.40;;
13415;SDS011;6779;50.150;8.680;2022-10-16T05:26:04;1.20;;;1.10;;
13415;SDS011;6779;50.150;8.680;2022-10-16T05:28:30;1.37;;;1.27;;
13415;SDS011;6779;50.150;8.680;2022-10-16T05:30:56;1.50;;;1.03;;
13415;SDS011;6779;50.150;8.680;2022-10-16T05:33:23;2.17;;;1.50;;
13415;SDS011;6779;50.150;8.680;2022-10-16T05:35:50;1.87;;;1.50;;
13415;SDS011;6779;50.150;8.680;2022-10-16T05:38:16;1.93;;;1.40;;
13415;SDS011;6779;50.150;8.680;2022-10-16T05:40:42;1.40;;;1.17;;
13415;SDS011;6779;50.150;8.680;2022-10-16T05:43:14;1.57;;;1.47;;
13415;SDS011;6779;50.150;8.680;2022-10-16T05:45:40;1.53;;;1.40;;
13415;SDS011;6779;50.150;8.680;2022-10-16T05:48:05;1.70;;;1.60;;
13415;SDS011;6779;50.150;8.680;2022-10-16T05:50:31;1.60;;;1.50;;
13415;SDS011;6779;50.150;8.680;2022-10-16T05:52:57;2.20;;;1.53;;
13415;SDS011;6779;50.150;8.680;2022-10-16T05:55:22;1.83;;;1.60;;
13415;SDS011;6779;50.150;8.680;2022-10-16T05:57:48;1.87;;;1.50;;
13415;SDS011;6779;50.150;8.680;2022-10-16T06:00:13;2.43;;;1.70;;
13415;SDS011;6779;50.150;8.680;2022-10-16T06:02:39;1.83;;;1.73;;
13415;SDS011;6779;50.150;8.680;2022-10-16T06:05:04;2.43;;;1.80;;
13415;SDS011;6779;50.150;8.680;2022-10-16T06:07:33;3.07;;;1.83;;
13415;SDS011;6779;50.150;8.680;2022-10-16T06:09:59;1.60;;;1.50;;
13415;SDS011;6779;50.150;8.680;2022-10-16T06:12:25;3.67;;;1.83;;
13415;SDS011;6779;50.150;8.680;2022-10-16T06:14:52;1.50;;;1.40;;
13415;SDS011;6779;50.150;8.680;2022-10-16T06:17:17;2.00;;;1.70;;
13415;SDS011;6779;50.150;8.680;2022-10-16T06:19:43;5.20;;;1.60;;
13415;SDS011;6779;50.150;8.680;2022-10-16T06:22:09;4.80;;;1.80;;
13415;SDS011;6779;50.150;8.680;2022-10-16T06:24:34;2.63;;;1.67;;
13415;SDS011;6779;50.150;8.680;2022-10-16T06:27:00;3.30;;;1.87;;
13415;SDS011;6779;50.150;8.680;2022-10-16T06:29:25;3.20;;;1.70;;
13415;SDS011;6779;50.150;8.680;2022-10-16T06:31:51;2.77;;;1.90;;
13415;SDS011;6779;50.150;8.680;2022-10-16T06:34:17;1.97;;;1.80;;
13415;SDS011;6779;50.150;8.680;2022-10-16T06:36:43;2.20;;;1.97;;
13415;SDS011;6779;50.150;8.680;2022-10-16T06:39:09;2.40;;;2.00;;
13415;SDS011;6779;50.150;8.680;2022-10-16T06:41:34;2.20;;;2.00;;
13415;SDS011;6779;50.150;8.680;2022-10-16T06:44:00;4.30;;;2.07;;
13415;SDS011;6779;50.150;8.680;2022-10-16T06:46:26;2.40;;;2.20;;
13415;SDS011;6779;50.150;8.680;2022-10-16T06:48:52;1.87;;;1.60;;
13415;SDS011;6779;50.150;8.680;2022-10-16T06:51:19;3.13;;;1.93;;
13415;SDS011;6779;50.150;8.680;2022-10-16T06:53:50;3.67;;;2.13;;
13415;SDS011;6779;50.150;8.680;2022-10-16T06:56:19;3.57;;;2.07;;
13415;SDS011;6779;50.150;8.680;2022-10-16T06:58:47;2.20;;;1.90;;
13415;SDS011;6779;50.150;8.680;2022-10-16T07:01:13;3.30;;;2.03;;
13415;SDS011;6779;50.150;8.680;2022-10-16T07:03:41;2.43;;;2.13;;
13415;SDS011;6779;50.150;8.680;2022-10-16T07:06:08;4.43;;;2.47;;
13415;SDS011;6779;50.150;8.680;2022-10-16T07:08:36;4.87;;;2.80;;
13415;SDS011;6779;50.150;8.680;2022-10-16T07:11:04;3.77;;;2.93;;
13415;SDS011;6779;50.150;8.680;2022-10-16T07:13:35;3.90;;;3.50;;
13415;SDS011;6779;50.150;8.680;2022-10-16T07:16:09;8.67;;;3.80;;
13415;SDS011;6779;50.150;8.680;2022-10-16T07:18:35;6.10;;;4.57;;
13415;SDS011;6779;50.150;8.680;2022-10-16T07:21:08;8.70;;;4.23;;
13415;SDS011;6779;50.150;8.680;2022-10-16T07:23:36;6.60;;;4.27;;
13415;SDS011;6779;50.150;8.680;2022-10-16T07:26:02;8.13;;;4.30;;
13415;SDS011;6779;50.150;8.680;2022-10-16T07:28:28;7.57;;;5.13;;
13415;SDS011;6779;50.150;8.680;2022-10-16T07:30:54;8.50;;;5.10;;
13415;SDS011;6779;50.150;8.680;2022-10-16T07:33:20;7.73;;;4.90;;
13415;SDS011;6779;50.150;8.680;2022-10-16T07:35:52;6.30;;;5.27;;
13415;SDS011;6779;50.150;8.680;2022-10-16T07:38:20;6.20;;;4.83;;
13415;SDS011;6779;50.150;8.680;2022-10-16T07:40:46;8.07;;;4.63;;
13415;SDS011;6779;50.150;8.680;2022-10-16T07:43:12;6.87;;;4.50;;
13415;SDS011;6779;50.150;8.680;2022-10-16T07:45:38;9.03;;;6.00;;
13415;SDS011;6779;50.150;8.680;2022-10-16T07:48:14;7.40;;;5.30;;
13415;SDS011;6779;50.150;8.680;2022-10-16T07:50:40;6.53;;;4.53;;
13415;SDS011;6779;50.150;8.680;2022-10-16T07:53:06;8.57;;;4.83;;
13415;SDS011;6779;50.150;8.680;2022-10-16T07:55:32;7.40;;;5.17;;
13415;SDS011;6779;50.150;8.680;2022-10-16T07:57:57;6.33;;;4.57;;
13415;SDS011;6779;50.150;8.680;2022-10-16T08:00:23;7.17;;;4.57;;
13415;SDS011;6779;50.150;8.680;2022-10-16T08:02:48;7.00;;;3.90;;
13415;SDS011;6779;50.150;8.680;2022-10-16T08:05:14;5.43;;;4.00;;
13415;SDS011;6779;50.150;8.680;2022-10-16T08:07:40;5.63;;;4.33;;
13415;SDS011;6779;50.150;8.680;2022-10-16T08:10:14;6.90;;;4.57;;
13415;SDS011;6779;50.150;8.680;2022-10-16T08:12:42;4.77;;;3.90;;
13415;SDS011;6779;50.150;8.680;2022-10-16T08:15:08;6.40;;;4.53;;
13415;SDS011;6779;50.150;8.680;2022-10-16T08:17:34;4.40;;;3.77;;
13415;SDS011;6779;50.150;8.680;2022-10-16T08:19:59;6.10;;;3.53;;
13415;SDS011;6779;50.150;8.680;2022-10-16T08:22:25;5.00;;;3.80;;
13415;SDS011;6779;50.150;8.680;2022-10-16T08:24:51;4.23;;;3.60;;
13415;SDS011;6779;50.150;8.680;2022-10-16T08:27:16;6.07;;;4.20;;
13415;SDS011;6779;50.150;8.680;2022-10-16T08:29:42;4.73;;;3.63;;
13415;SDS011;6779;50.150;8.680;2022-10-16T08:32:07;5.67;;;3.60;;
13415;SDS011;6779;50.150;8.680;2022-10-16T08:34:33;6.23;;;3.83;;
13415;SDS011;6779;50.150;8.680;2022-10-16T08:36:59;5.20;;;4.30;;
13415;SDS011;6779;50.150;8.680;2022-10-16T08:39:24;3.63;;;3.20;;
13415;SDS011;6779;50.150;8.680;2022-10-16T08:47:05;6.27;;;4.37;;
13415;SDS011;6779;50.150;8.680;2022-10-16T08:50:00;5.70;;;3.93;;
13415;SDS011;6779;50.150;8.680;2022-10-16T08:52:34;5.20;;;4.17;;
13415;SDS011;6779;50.150;8.680;2022-10-16T08:55:03;6.10;;;4.07;;
13415;SDS011;6779;50.150;8.680;2022-10-16T08:57:29;7.53;;;4.17;;
13415;SDS011;6779;50.150;8.680;2022-10-16T08:59:57;4.87;;;4.37;;
13415;SDS011;6779;50.150;8.680;2022-10-16T09:02:50;5.30;;;4.77;;
13415;SDS011;6779;50.150;8.680;2022-10-16T09:08:23;6.27;;;5.37;;
13415;SDS011;6779;50.150;8.680;2022-10-16T09:11:11;6.43;;;5.37;;
13415;SDS011;6779;50.150;8.680;2022-10-16T09:13:54;5.83;;;5.00;;
13415;SDS011;6779;50.150;8.680;2022-10-16T09:16:53;6.53;;;5.00;;
13415;SDS011;6779;50.150;8.680;2022-10-16T09:19:35;5.27;;;4.13;;
13415;SDS011;6779;50.150;8.680;2022-10-16T09:22:10;10.23;;;5.63;;
13415;SDS011;6779;50.150;8.680;2022-10-16T09:24:39;5.50;;;4.37;;
13415;SDS011;6779;50.150;8.680;2022-10-16T09:27:07;7.73;;;4.47;;
13415;SDS011;6779;50.150;8.680;2022-10-16T09:29:36;6.27;;;5.00;;
13415;SDS011;6779;50.150;8.680;2022-10-16T09:32:14;5.27;;;4.30;;
13415;SDS011;6779;50.150;8.680;2022-10-16T09:34:48;6.20;;;5.00;;
13415;SDS011;6779;50.150;8.680;2022-10-16T09:37:21;7.47;;;4.83;;
13415;SDS011;6779;50.150;8.680;2022-10-16T09:39:50;5.70;;;5.03;;
13415;SDS011;6779;50.150;8.680;2022-10-16T09:42:30;6.23;;;4.73;;
13415;SDS011;6779;50.150;8.680;2022-10-16T09:44:58;5.80;;;4.83;;
13415;SDS011;6779;50.150;8.680;2022-10-16T09:47:23;5.47;;;4.67;;
13415;SDS011;6779;50.150;8.680;2022-10-16T09:50:00;6.40;;;4.30;;
13415;SDS011;6779;50.150;8.680;2022-10-16T09:52:30;5.87;;;4.63;;
13415;SDS011;6779;50.150;8.680;2022-10-16T09:54:58;5.77;;;4.63;;
13415;SDS011;6779;50.150;8.680;2022-10-16T09:57:37;7.10;;;4.80;;
13415;SDS011;6779;50.150;8.680;2022-10-16T10:00:15;8.17;;;4.83;;
13415;SDS011;6779;50.150;8.680;2022-10-16T10:02:42;10.67;;;6.73;;
13415;SDS011;6779;50.150;8.680;2022-10-16T10:05:17;7.27;;;5.30;;
13415;SDS011;6779;50.150;8.680;2022-10-16T10:07:45;9.37;;;4.83;;
13415;SDS011;6779;50.150;8.680;2022-10-16T10:10:21;6.97;;;4.67;;
13415;SDS011;6779;50.150;8.680;2022-10-16T10:12:48;7.10;;;5.27;;
13415;SDS011;6779;50.150;8.680;2022-10-16T10:15:14;9.13;;;5.93;;
13415;SDS011;6779;50.150;8.680;2022-10-16T10:17:47;7.13;;;5.10;;
13415;SDS011;6779;50.150;8.680;2022-10-16T10:20:25;6.63;;;4.60;;
13415;SDS011;6779;50.150;8.680;2022-10-16T10:22:53;5.33;;;4.23;;
13415;SDS011;6779;50.150;8.680;2022-10-16T10:25:30;4.37;;;3.43;;
13415;SDS011;6779;50.150;8.680;2022-10-16T10:36:27;2.63;;;2.10;;
13415;SDS011;6779;50.150;8.680;2022-10-16T10:39:04;2.07;;;1.87;;
13415;SDS011;6779;50.150;8.680;2022-10-16T10:44:43;2.27;;;2.07;;
13415;SDS011;6779;50.150;8.680;2022-10-16T10:47:38;3.80;;;2.70;;
13415;SDS011;6779;50.150;8.680;2022-10-16T10:53:03;3.17;;;2.20;;
13415;SDS011;6779;50.150;8.680;2022-10-16T10:55:52;4.40;;;2.93;;
13415;SDS011;6779;50.150;8.680;2022-10-16T11:01:16;4.73;;;3.20;;
13415;SDS011;6779;50.150;8.680;2022-10-16T11:04:11;5.30;;;4.37;;
13415;SDS011;6779;50.150;8.680;2022-10-16T11:06:46;6.83;;;4.70;;
13415;SDS011;6779;50.150;8.680;2022-10-16T11:09:15;5.70;;;4.80;;
13415;SDS011;6779;50.150;8.680;2022-10-16T11:11:53;6.47;;;5.03;;
13415;SDS011;6779;50.150;8.680;2022-10-16T11:14:28;7.13;;;5.83;;
13415;SDS011;6779;50.150;8.680;2022-10-16T11:22:17;6.20;;;4.87;;
13415;SDS011;6779;50.150;8.680;2022-10-16T11:27:21;3.90;;;3.50;;
13415;SDS011;6779;50.150;8.680;2022-10-16T11:29:59;4.70;;;3.60;;
13415;SDS011;6779;50.150;8.680;2022-10-16T11:32:40;4.17;;;3.77;;
13415;SDS011;6779;50.150;8.680;2022-10-16T11:35:23;4.27;;;3.70;;
13415;SDS011;6779;50.150;8.680;2022-10-16T11:38:01;4.10;;;3.70;;
13415;SDS011;6779;50.150;8.680;2022-10-16T11:40:34;5.07;;;4.23;;
13415;SDS011;6779;50.150;8.680;2022-10-16T11:43:09;5.37;;;4.60;;
13415;SDS011;6779;50.150;8.680;2022-10-16T11:46:02;5.20;;;4.70;;
13415;SDS011;6779;50.150;8.680;2022-10-16T11:56:46;5.50;;;5.00;;
13415;SDS011;6779;50.150;8.680;2022-10-16T12:07:06;6.63;;;5.93;;
13415;SDS011;6779;50.150;8.680;2022-10-16T12:09:37;5.20;;;4.70;;
13415;SDS011;6779;50.150;8.680;2022-10-16T12:12:04;5.93;;;4.87;;
13415;SDS011;6779;50.150;8.680;2022-10-16T12:14:48;4.63;;;4.23;;
13415;SDS011;6779;50.150;8.680;2022-10-16T12:17:25;3.50;;;3.20;;
13415;SDS011;6779;50.150;8.680;2022-10-16T12:22:51;3.50;;;3.20;;
13415;SDS011;6779;50.150;8.680;2022-10-16T12:25:30;3.10;;;2.80;;
13415;SDS011;6779;50.150;8.680;2022-10-16T12:28:04;2.37;;;2.13;;
13415;SDS011;6779;50.150;8.680;2022-10-16T12:30:40;2.70;;;2.30;;
13415;SDS011;6779;50.150;8.680;2022-10-16T12:33:23;3.07;;;2.37;;
13415;SDS011;6779;50.150;8.680;2022-10-16T12:35:58;3.13;;;2.60;;
13415;SDS011;6779;50.150;8.680;2022-10-16T12:38:36;2.87;;;2.30;;
13415;SDS011;6779;50.150;8.680;2022-10-16T12:41:10;2.97;;;2.40;;
13415;SDS011;6779;50.150;8.680;2022-10-16T12:43:44;3.00;;;2.70;;
13415;SDS011;6779;50.150;8.680;2022-10-16T12:48:41;2.83;;;2.60;;
13415;SDS011;6779;50.150;8.680;2022-10-16T12:51:23;2.77;;;2.47;;
13415;SDS011;6779;50.150;8.680;2022-10-16T12:54:02;3.70;;;3.27;;
13415;SDS011;6779;50.150;8.680;2022-10-16T12:59:42;2.93;;;2.00;;
13415;SDS011;6779;50.150;8.680;2022-10-16T13:02:39;2.50;;;2.30;;
13415;SDS011;6779;50.150;8.680;2022-10-16T13:11:27;2.60;;;2.40;;
13415;SDS011;6779;50.150;8.680;2022-10-16T13:17:25;1.80;;;1.70;;
13415;SDS011;6779;50.150;8.680;2022-10-16T13:20:20;2.97;;;2.13;;
13415;SDS011;6779;50.150;8.680;2022-10-16T13:25:44;2.60;;;1.90;;
13415;SDS011;6779;50.150;8.680;2022-10-16T13:28:12;2.33;;;2.13;;
13415;SDS011;6779;50.150;8.680;2022-10-16T13:30:39;1.83;;;1.70;;
13415;SDS011;6779;50.150;8.680;2022-10-16T13:35:54;2.00;;;1.60;;
13415;SDS011;6779;50.150;8.680;2022-10-16T13:38:21;2.70;;;1.90;;
13415;SDS011;6779;50.150;8.680;2022-10-16T13:43:26;2.00;;;1.77;;
13415;SDS011;6779;50.150;8.680;2022-10-16T13:46:04;1.57;;;1.47;;
13415;SDS011;6779;50.150;8.680;2022-10-16T13:48:32;1.90;;;1.47;;
13415;SDS011;6779;50.150;8.680;2022-10-16T13:53:39;4.27;;;1.77;;
13415;SDS011;6779;50.150;8.680;2022-10-16T13:56:07;2.80;;;2.00;;
13415;SDS011;6779;50.150;8.680;2022-10-16T13:58:37;3.33;;;1.33;;
13415;SDS011;6779;50.150;8.680;2022-10-16T14:01:06;2.30;;;1.47;;
13415;SDS011;6779;50.150;8.680;2022-10-16T14:03:41;1.93;;;1.70;;
13415;SDS011;6779;50.150;8.680;2022-10-16T14:06:11;2.67;;;1.53;;
13415;SDS011;6779;50.150;8.680;2022-10-16T14:08:43;3.77;;;1.80;;
13415;SDS011;6779;50.150;8.680;2022-10-16T14:11:19;2.30;;;1.90;;
13415;SDS011;6779;50.150;8.680;2022-10-16T14:13:48;2.47;;;1.90;;
13415;SDS011;6779;50.150;8.680;2022-10-16T14:16:18;1.60;;;1.50;;
13415;SDS011;6779;50.150;8.680;2022-10-16T14:18:49;2.20;;;1.70;;
13415;SDS011;6779;50.150;8.680;2022-10-16T14:21:24;2.07;;;1.87;;
13415;SDS011;6779;50.150;8.680;2022-10-16T14:23:51;2.13;;;1.83;;
13415;SDS011;6779;50.150;8.680;2022-10-16T14:26:19;2.17;;;1.90;;
13415;SDS011;6779;50.150;8.680;2022-10-16T14:28:47;2.83;;;1.70;;
13415;SDS011;6779;50.150;8.680;2022-10-16T14:31:24;3.30;;;2.33;;
13415;SDS011;6779;50.150;8.680;2022-10-16T14:33:54;3.63;;;2.60;;
13415;SDS011;6779;50.150;8.680;2022-10-16T14:36:20;2.57;;;1.83;;
13415;SDS011;6779;50.150;8.680;2022-10-16T14:38:56;3.03;;;2.40;;
13415;SDS011;6779;50.150;8.680;2022-10-16T14:41:22;2.27;;;2.00;;
13415;SDS011;6779;50.150;8.680;2022-10-16T14:43:50;2.20;;;2.00;;
13415;SDS011;6779;50.150;8.680;2022-10-16T14:46:22;3.53;;;2.03;;
13415;SDS011;6779;50.150;8.680;2022-10-16T14:51:34;2.67;;;2.00;;
13415;SDS011;6779;50.150;8.680;2022-10-16T14:54:00;2.43;;;2.17;;
13415;SDS011;6779;50.150;8.680;2022-10-16T14:56:29;2.37;;;2.07;;
13415;SDS011;6779;50.150;8.680;2022-10-16T14:58:57;3.20;;;2.27;;
13415;SDS011;6779;50.150;8.680;2022-10-16T15:01:23;2.57;;;2.30;;
13415;SDS011;6779;50.150;8.680;2022-10-16T15:03:49;2.23;;;1.87;;
13415;SDS011;6779;50.150;8.680;2022-10-16T15:06:17;3.73;;;2.00;;
13415;SDS011;6779;50.150;8.680;2022-10-16T15:08:42;2.97;;;1.83;;
13415;SDS011;6779;50.150;8.680;2022-10-16T15:11:12;3.43;;;2.03;;
13415;SDS011;6779;50.150;8.680;2022-10-16T15:13:40;4.80;;;2.37;;
13415;SDS011;6779;50.150;8.680;2022-10-16T15:16:13;3.77;;;2.30;;
13415;SDS011;6779;50.150;8.680;2022-10-16T15:18:40;2.50;;;1.80;;
13415;SDS011;6779;50.150;8.680;2022-10-16T15:21:05;3.13;;;1.93;;
13415;SDS011;6779;50.150;8.680;2022-10-16T15:23:31;2.97;;;2.20;;
13415;SDS011;6779;50.150;8.680;2022-10-16T15:25:57;2.20;;;2.00;;
13415;SDS011;6779;50.150;8.680;2022-10-16T15:28:23;2.07;;;1.70;;
13415;SDS011;6779;50.150;8.680;2022-10-16T15:30:50;1.73;;;1.63;;
13415;SDS011;6779;50.150;8.680;2022-10-16T15:33:21;2.70;;;2.00;;
13415;SDS011;6779;50.150;8.680;2022-10-16T15:35:49;2.23;;;2.00;;
13415;SDS011;6779;50.150;8.680;2022-10-16T15:38:16;2.57;;;1.97;;
13415;SDS011;6779;50.150;8.680;2022-10-16T15:40:43;2.53;;;2.10;;
13415;SDS011;6779;50.150;8.680;2022-10-16T15:43:10;2.00;;;1.80;;
13415;SDS011;6779;50.150;8.680;2022-10-16T15:45:36;2.57;;;2.10;;
13415;SDS011;6779;50.150;8.680;2022-10-16T15:48:02;2.47;;;2.23;;
13415;SDS011;6779;50.150;8.680;2022-10-16T15:50:28;5.90;;;2.10;;
13415;SDS011;6779;50.150;8.680;2022-10-16T15:52:55;2.53;;;2.33;;
13415;SDS011;6779;50.150;8.680;2022-10-16T15:55:21;5.30;;;2.40;;
13415;SDS011;6779;50.150;8.680;2022-10-16T15:57:46;4.03;;;2.13;;
13415;SDS011;6779;50.150;8.680;2022-10-16T16:00:13;2.60;;;2.40;;
13415;SDS011;6779;50.150;8.680;2022-10-16T16:02:42;8.17;;;2.80;;
13415;SDS011;6779;50.150;8.680;2022-10-16T16:05:09;2.90;;;2.40;;
13415;SDS011;6779;50.150;8.680;2022-10-16T16:07:36;2.50;;;2.30;;
13415;SDS011;6779;50.150;8.680;2022-10-16T16:10:03;2.20;;;2.00;;
13415;SDS011;6779;50.150;8.680;2022-10-16T16:12:31;3.10;;;2.20;;
13415;SDS011;6779;50.150;8.680;2022-10-16T16:14:57;6.30;;;3.10;;
13415;SDS011;6779;50.150;8.680;2022-10-16T16:17:22;5.97;;;3.47;;
13415;SDS011;6779;50.150;8.680;2022-10-16T16:19:49;9.20;;;5.10;;
13415;SDS011;6779;50.150;8.680;2022-10-16T16:22:15;13.83;;;6.93;;
13415;SDS011;6779;50.150;8.680;2022-10-16T16:24:40;9.63;;;5.63;;
13415;SDS011;6779;50.150;8.680;2022-10-16T16:27:06;11.87;;;6.33;;
13415;SDS011;6779;50.150;8.680;2022-10-16T16:29:31;12.43;;;7.47;;
13415;SDS011;6779;50.150;8.680;2022-10-16T16:31:58;9.37;;;5.57;;
13415;SDS011;6779;50.150;8.680;2022-10-16T16:34:24;6.53;;;4.10;;
13415;SDS011;6779;50.150;8.680;2022-10-16T16:36:53;6.73;;;4.20;;
13415;SDS011;6779;50.150;8.680;2022-10-16T16:39:20;6.67;;;4.03;;